Terminal Aerodrome Forecast
Issued by NWS

Home | Current Version | Previous Version | Text Only | Print | Product List | Glossary On
Versions: 1 2 3 4 5 6 7 8 9 10 11 12 13 14 15 16 17
000
FTUS45 KTFX 261600 AAA
TAFBZN
TAF AMD
KBZN 261645Z 2617/2712 VRB03KT 2SM BR BKN003
      TEMPO 2617/2619 5SM BR SCT010 BKN060
     FM261900 VRB05KT P6SM VCSH OVC070
     FM270000 VRB05KT P6SM BKN100=

USA.gov is the U.S. government's official web portal to all federal, state and local government web resources and services.